Accueil
METAR-TAF:

METAR-TAF

Aéroports :

Aéroport de Rijeka

Rijeka, Croatie

latitude: 45-13N, longitude: 014-35E, altitude: 85 m

Observation

Le bulletin a été fait il y a 39 minutes, à 21:30 UTC
Vent calme
Température 20°C
Humidité 73%
Pression 1017 hPa
Visibilité 10 km ou plus
pas de nuages en-dessous de 1500 mètres et pas de cumulonimbus.

METAR: LDRI 162130Z 00000KT CAVOK 20/15 Q1017

Heure: 00:09 (22:09 UTC)

Prévision

Le bulletin a été fait il y a 4 heures et 44 minutes, à 17:25 UTC
Prévision valable du 16 à 18 UTC au 17 à 18 UTC
Vent 5 kt de nord/nord-ouest
Visibilité 10 km ou plus
pas de nuages en-dessous de 1500 mètres et pas de cumulonimbus.

TAF: LDRI 161725Z 1618/1718 34005KT CAVOK TX31/1715Z TN18/1703Z

Observations et prévisions météorologiques de plus de 4000 aéroports (messages METAR et TAF).

Les stations disponibles sont représentées par des disques jaunes et rouges sur la carte.

Passer la souris dessus pour voir le nom de la station.

Cliquer dessus pour voir les observations et prévisions météorologiques.

Pour changer de carte: cliquez sur les boutons verts avec une croix noire pour zoomer, sur le bouton vert avec un tiret pour effectuer un zoom arrière, ou sur les flèches vertes pour les cartes adjacentes.


METAR-TAF: